Bitte die für das Benutzerkonto hinterlegte E-Mail-Adresse eingeben. Der Benutzername wird dann an diese E-Mail-Adresse geschickt.

 

 

WebCam

  
Kamera Halle
Kamera Vorfeld
Wetter EDDS

METAR

EDDS 161320Z 04004KT 010V070 9999 SCT040 20/11 Q1022 NOSIG =
EDDS 161100Z 1612/1712 33006KT 9999 BKN025 BECMG 1618/1620 VRB03KT PROB30 TEMPO 1702/1706 2500 BR BKN002 BECMG 1706/1708 06007KT


TAF

EDDS 161100Z 1612/1712 33006KT 9999 BKN025 BECMG 1618/1620 VRB03KT PROB30 TEMPO 1702/1706 2500 BR BKN002 BECMG 1706/1708 06007KT =


SR/SS

03:18 / 19:25 UTC
(EDSO 16-06-2019)